Time;durP1;ratioP1;P1;durP2;ratioP2;P2;SDS_P1;SDS_P2;PMS_P1;PMS_P2;Temp;Humidity;BMP_temperature;BMP_pressure;BME280_temperature;BME280_humidity;BME280_pressure;Samples;Min_cycle;Max_cycle;Signal;HPM_P1;HPM_P2
2022/05/12 00:02:14;;;;;;;7.20;4.63;;;17.50;99.90;;;;;;5208031;28;20525;-52
2022/05/12 00:04:45;;;;;;;7.73;5.13;;;17.50;99.90;;;;;;5194387;28;20215;-51
2022/05/12 00:07:15;;;;;;;7.60;5.10;;;17.60;99.90;;;;;;5211648;28;20188;-53
2022/05/12 00:09:46;;;;;;;4.93;3.73;;;17.70;99.90;;;;;;5210223;28;20187;-53
2022/05/12 00:12:16;;;;;;;4.53;4.23;;;17.80;99.90;;;;;;5225222;28;20198;-52
2022/05/12 00:14:47;;;;;;;4.73;3.87;;;17.80;99.90;;;;;;5218324;28;20289;-53
2022/05/12 00:17:18;;;;;;;7.20;3.67;;;17.80;99.90;;;;;;5206645;28;20657;-52
2022/05/12 00:19:48;;;;;;;5.27;4.90;;;17.70;99.90;;;;;;5208604;28;20213;-52
2022/05/12 00:22:19;;;;;;;4.20;3.90;;;17.70;99.90;;;;;;5191540;28;20188;-52
2022/05/12 00:24:49;;;;;;;4.40;4.00;;;17.60;99.90;;;;;;5203317;28;20230;-54
2022/05/12 00:27:20;;;;;;;4.30;3.93;;;17.60;99.90;;;;;;5193815;28;20190;-52
2022/05/12 00:29:50;;;;;;;5.80;3.93;;;17.60;99.90;;;;;;5201125;28;20680;-53
2022/05/12 00:32:21;;;;;;;4.13;3.83;;;17.60;99.90;;;;;;5213393;28;20194;-55
2022/05/12 00:34:51;;;;;;;4.20;4.00;;;17.70;99.90;;;;;;5221864;28;20282;-52
2022/05/12 00:37:22;;;;;;;4.43;3.60;;;17.70;99.90;;;;;;5206218;28;20181;-53
2022/05/12 00:39:52;;;;;;;4.80;4.33;;;17.70;99.90;;;;;;5209711;28;20336;-53
2022/05/12 00:42:23;;;;;;;3.30;3.10;;;17.70;99.90;;;;;;5201390;28;20598;-53
2022/05/12 00:44:53;;;;;;;6.87;3.23;;;17.70;99.90;;;;;;5214051;28;20218;-52
2022/05/12 00:47:24;;;;;;;6.90;4.03;;;17.80;99.90;;;;;;5208537;28;20222;-53
2022/05/12 00:49:55;;;;;;;4.13;3.80;;;17.90;99.90;;;;;;5193746;28;20207;-52
2022/05/12 00:52:29;;;;;;;3.37;3.07;;;17.90;99.90;;;;;;5199512;28;20263;-53
2022/05/12 00:55:05;;;;;;;5.20;4.27;;;17.90;99.90;;;;;;5195215;28;20277;-54
2022/05/12 00:57:40;;;;;;;10.80;4.03;;;17.90;99.90;;;;;;5197767;28;20433;-52
2022/05/12 01:00:13;;;;;;;4.77;4.37;;;17.90;99.90;;;;;;5214747;28;20434;-52
2022/05/12 01:02:46;;;;;;;6.37;3.70;;;18.00;99.90;;;;;;5192001;28;20790;-51
2022/05/12 01:05:18;;;;;;;4.67;4.10;;;17.90;99.90;;;;;;5194606;28;20466;-52
2022/05/12 01:07:51;;;;;;;4.23;3.83;;;18.00;99.90;;;;;;5216435;28;20528;-53
2022/05/12 01:10:24;;;;;;;5.20;3.73;;;17.90;99.90;;;;;;5210706;28;21069;-51
2022/05/12 01:12:54;;;;;;;9.70;3.77;;;17.90;99.90;;;;;;5210176;28;20472;-54
2022/05/12 01:15:26;;;;;;;6.93;3.90;;;17.80;99.90;;;;;;5214651;28;20441;-53
2022/05/12 01:18:06;;;;;;;5.13;3.50;;;17.80;99.90;;;;;;5210558;28;20221;-53
2022/05/12 01:20:38;;;;;;;8.20;4.03;;;17.90;99.90;;;;;;5198039;28;20438;-52
2022/05/12 01:23:29;;;;;;;5.00;4.23;;;17.90;99.90;;;;;;5192792;28;20445;-53
2022/05/12 01:26:06;;;;;;;4.57;4.13;;;18.00;99.90;;;;;;5203028;28;20477;-52
2022/05/12 01:28:37;;;;;;;4.30;4.03;;;18.10;99.90;;;;;;5203082;28;20775;-53
2022/05/12 01:31:08;;;;;;;9.07;4.50;;;18.10;99.90;;;;;;5215120;28;20424;-53
2022/05/12 01:33:38;;;;;;;4.57;4.10;;;18.10;99.90;;;;;;5213660;28;20203;-53
2022/05/12 01:36:09;;;;;;;3.80;3.50;;;18.00;99.90;;;;;;5216003;28;20457;-52
2022/05/12 01:38:39;;;;;;;5.63;3.33;;;18.00;99.90;;;;;;5215555;28;20266;-53
2022/05/12 01:41:10;;;;;;;4.37;3.97;;;17.80;99.90;;;;;;5207181;28;20241;-52
2022/05/12 01:43:41;;;;;;;6.70;3.93;;;17.60;99.90;;;;;;5220697;28;20190;-52
2022/05/12 01:46:11;;;;;;;4.73;4.33;;;17.50;99.90;;;;;;5215224;28;20301;-54
2022/05/12 01:48:42;;;;;;;4.37;3.97;;;17.30;99.90;;;;;;5217185;28;20196;-54
2022/05/12 01:51:12;;;;;;;4.20;3.83;;;17.10;99.90;;;;;;5221423;28;20190;-54
2022/05/12 01:53:43;;;;;;;13.27;4.43;;;17.00;99.90;;;;;;5214003;28;20576;-53
2022/05/12 01:56:13;;;;;;;6.63;4.70;;;16.90;99.90;;;;;;5201533;28;20204;-53
2022/05/12 01:58:44;;;;;;;12.60;4.17;;;16.80;99.90;;;;;;5201779;28;20183;-53
2022/05/12 02:01:14;;;;;;;7.67;4.43;;;16.80;99.90;;;;;;5205498;28;20273;-51
2022/05/12 02:03:45;;;;;;;6.43;4.50;;;16.80;99.90;;;;;;5211900;28;20191;-52
2022/05/12 02:06:15;;;;;;;6.93;4.90;;;16.70;99.90;;;;;;5207687;28;20211;-53
2022/05/12 02:08:46;;;;;;;5.07;4.67;;;16.70;99.90;;;;;;5201171;28;20595;-53
2022/05/12 02:11:17;;;;;;;5.03;4.33;;;16.70;99.90;;;;;;5205995;28;20450;-53
2022/05/12 02:13:47;;;;;;;4.73;4.43;;;16.60;99.90;;;;;;5206684;28;20817;-52
2022/05/12 02:16:18;;;;;;;4.23;4.00;;;16.60;99.90;;;;;;5212812;28;20244;-52
2022/05/12 02:18:49;;;;;;;5.20;4.87;;;16.60;99.90;;;;;;5210871;28;20692;-52
2022/05/12 02:21:20;;;;;;;10.10;5.03;;;16.60;99.90;;;;;;5197794;28;20645;-52
2022/05/12 02:23:50;;;;;;;7.63;5.37;;;16.50;99.90;;;;;;5199252;28;20188;-51
2022/05/12 02:26:21;;;;;;;13.37;5.47;;;16.40;99.90;;;;;;5206858;28;21000;-52
2022/05/12 02:28:52;;;;;;;7.30;5.30;;;16.20;99.90;;;;;;5201414;28;20189;-54
2022/05/12 02:31:23;;;;;;;11.17;5.43;;;15.90;99.90;;;;;;5198943;28;20329;-52
2022/05/12 02:33:53;;;;;;;6.10;4.97;;;15.70;99.90;;;;;;5204823;28;20321;-53
2022/05/12 02:36:24;;;;;;;6.37;5.70;;;15.60;99.90;;;;;;5192636;28;20214;-53
2022/05/12 02:38:54;;;;;;;7.50;6.03;;;15.40;99.90;;;;;;5217495;28;20179;-52
2022/05/12 02:41:25;;;;;;;12.87;6.40;;;15.30;99.90;;;;;;5219990;28;20189;-54
2022/05/12 02:43:55;;;;;;;11.13;7.30;;;15.20;99.90;;;;;;5208530;28;20652;-53
2022/05/12 02:46:26;;;;;;;16.33;6.40;;;15.10;99.90;;;;;;5220181;28;20222;-53
2022/05/12 02:48:56;;;;;;;17.23;6.30;;;15.00;99.90;;;;;;5208807;28;20217;-52
2022/05/12 02:51:27;;;;;;;7.40;6.67;;;15.00;99.90;;;;;;5205618;28;20175;-51
2022/05/12 02:53:57;;;;;;;11.43;6.37;;;14.90;99.90;;;;;;5208937;28;20282;-52
2022/05/12 02:56:28;;;;;;;13.23;6.40;;;14.80;99.90;;;;;;5196551;28;20606;-53
2022/05/12 02:58:58;;;;;;;6.50;5.80;;;14.70;99.90;;;;;;5196848;28;20181;-53
2022/05/12 03:01:29;;;;;;;11.47;7.10;;;14.70;99.90;;;;;;5189500;28;20188;-52
2022/05/12 03:04:00;;;;;;;9.50;8.07;;;14.70;99.90;;;;;;5200395;28;20183;-52
2022/05/12 03:06:31;;;;;;;15.53;8.07;;;14.60;99.90;;;;;;5217760;28;20218;-53
2022/05/12 03:09:03;;;;;;;9.17;8.07;;;14.60;99.90;;;;;;5217576;28;20546;-51
2022/05/12 03:11:33;;;;;;;13.80;6.90;;;14.60;99.90;;;;;;5220846;28;20529;-52
2022/05/12 03:14:04;;;;;;;14.47;7.17;;;14.50;99.90;;;;;;5223579;28;20582;-52
2022/05/12 03:16:35;;;;;;;15.10;8.60;;;14.50;99.90;;;;;;5221102;28;20220;-53
2022/05/12 03:19:06;;;;;;;8.77;7.43;;;14.50;99.90;;;;;;5223089;28;20261;-53
2022/05/12 03:21:37;;;;;;;12.23;7.60;;;14.50;99.90;;;;;;5212726;28;20438;-53
2022/05/12 03:24:09;;;;;;;11.90;7.30;;;14.40;99.90;;;;;;5224434;28;20195;-54
2022/05/12 03:26:40;;;;;;;11.90;7.60;;;14.30;99.90;;;;;;5246304;23;20500;-50
2022/05/12 03:29:11;;;;;;;20.20;8.53;;;14.40;99.90;;;;;;5245020;28;20815;-50
2022/05/12 03:31:44;;;;;;;13.10;8.03;;;14.40;99.90;;;;;;5245497;28;20429;-51
2022/05/12 03:34:14;;;;;;;14.67;9.30;;;14.40;99.90;;;;;;5244429;28;20235;-51
2022/05/12 03:36:45;;;;;;;12.87;9.20;;;14.30;99.90;;;;;;5231334;28;20438;-51
2022/05/12 03:39:15;;;;;;;19.93;9.60;;;14.30;99.90;;;;;;5240584;28;20712;-50
2022/05/12 03:41:46;;;;;;;13.50;8.60;;;14.30;99.90;;;;;;5225125;28;20711;-51
2022/05/12 03:47:06;;;;;;;9.43;8.53;;;14.30;99.90;;;;;;5225402;28;20182;-50
2022/05/12 03:49:36;;;;;;;15.13;8.47;;;14.20;99.90;;;;;;5224312;28;20548;-50
2022/05/12 03:52:07;;;;;;;13.37;7.40;;;14.20;99.90;;;;;;5214807;28;20241;-51
2022/05/12 03:54:39;;;;;;;13.80;7.70;;;14.10;99.90;;;;;;5224093;28;20296;-50
2022/05/12 03:57:11;;;;;;;8.23;6.87;;;14.00;99.90;;;;;;5224582;28;20752;-50
2022/05/12 03:59:43;;;;;;;10.23;7.33;;;14.00;99.90;;;;;;5224827;28;20441;-50
2022/05/12 04:02:14;;;;;;;15.70;7.50;;;14.00;99.90;;;;;;5225656;28;20465;-50
2022/05/12 04:04:46;;;;;;;18.83;8.00;;;13.90;99.90;;;;;;5223372;28;20433;-51
2022/05/12 04:07:20;;;;;;;18.53;8.00;;;13.90;99.90;;;;;;5224970;28;20467;-50
2022/05/12 04:09:51;;;;;;;9.37;7.43;;;13.90;99.90;;;;;;5224487;28;20431;-51
2022/05/12 04:12:21;;;;;;;17.07;8.00;;;13.90;99.90;;;;;;5223003;28;20536;-49
2022/05/12 04:14:52;;;;;;;17.50;8.17;;;13.80;99.90;;;;;;5226396;28;20183;-50
2022/05/12 04:17:23;;;;;;;13.23;7.70;;;13.80;99.90;;;;;;5224707;28;20183;-51
2022/05/12 04:19:53;;;;;;;11.33;8.63;;;13.80;99.90;;;;;;5223797;28;20548;-51
2022/05/12 04:22:24;;;;;;;15.93;7.67;;;13.80;99.90;;;;;;5223845;28;20629;-51
2022/05/12 04:24:54;;;;;;;7.27;6.67;;;13.90;99.90;;;;;;5231462;28;20210;-52
2022/05/12 04:27:25;;;;;;;10.37;7.63;;;13.90;99.90;;;;;;5223713;28;20518;-50
2022/05/12 04:29:56;;;;;;;14.37;8.43;;;13.80;99.90;;;;;;5222431;28;20190;-50
2022/05/12 04:32:26;;;;;;;13.40;6.97;;;13.80;99.90;;;;;;5222838;28;20575;-52
2022/05/12 04:35:14;;;;;;;9.83;7.20;;;13.80;99.90;;;;;;5222285;28;20194;-50
2022/05/12 04:37:48;;;;;;;14.17;6.87;;;13.80;99.90;;;;;;5223883;28;20220;-51
2022/05/12 04:40:28;;;;;;;17.43;7.07;;;13.80;99.90;;;;;;5229125;28;20459;-50
2022/05/12 04:42:59;;;;;;;9.07;7.00;;;13.80;99.90;;;;;;5224102;28;20823;-51
2022/05/12 04:45:33;;;;;;;9.50;7.10;;;13.70;99.90;;;;;;5216282;28;20460;-50
2022/05/12 04:48:04;;;;;;;9.77;5.90;;;13.70;99.90;;;;;;5223526;28;20425;-50
2022/05/12 04:50:36;;;;;;;29.33;9.07;;;13.70;99.90;;;;;;5222263;28;20507;-50
2022/05/12 04:53:08;;;;;;;19.73;7.00;;;13.70;99.90;;;;;;5223675;28;20289;-51
2022/05/12 04:55:39;;;;;;;6.30;3.90;;;14.30;99.90;;;;;;5222125;28;20441;-52
2022/05/12 04:58:09;;;;;;;13.93;4.20;;;15.40;99.90;;;;;;5227931;28;20774;-51
2022/05/12 05:00:43;;;;;;;4.27;3.83;;;16.00;99.90;;;;;;5226806;28;20440;-50
2022/05/12 05:03:14;;;;;;;8.03;4.57;;;16.50;99.90;;;;;;5206815;28;20198;-50
2022/05/12 05:05:45;;;;;;;8.63;3.60;;;16.60;99.90;;;;;;5222514;28;20457;-51
2022/05/12 05:08:18;;;;;;;7.67;4.87;;;17.10;99.90;;;;;;5225767;28;20635;-51
2022/05/12 05:10:51;;;;;;;13.23;3.23;;;17.20;99.90;;;;;;5226635;28;20225;-50
2022/05/12 05:13:22;;;;;;;3.50;3.20;;;17.60;99.90;;;;;;5218909;28;20466;-50
2022/05/12 05:15:53;;;;;;;3.13;2.30;;;17.80;99.90;;;;;;5225090;28;20980;-50
2022/05/12 05:18:24;;;;;;;11.40;3.43;;;19.00;99.90;;;;;;5224490;28;20437;-50
2022/05/12 05:20:55;;;;;;;2.93;2.20;;;20.50;99.90;;;;;;5221010;28;20487;-50
2022/05/12 05:23:25;;;;;;;5.37;2.37;;;21.90;97.30;;;;;;5223733;28;20613;-50
2022/05/12 05:25:56;;;;;;;6.60;2.70;;;21.60;89.50;;;;;;5227808;28;20222;-50
2022/05/12 05:28:26;;;;;;;8.53;2.33;;;20.00;89.90;;;;;;5236045;28;20186;-50
2022/05/12 05:30:57;;;;;;;2.50;2.30;;;19.00;96.70;;;;;;5243187;28;20190;-51
2022/05/12 05:33:27;;;;;;;4.30;2.70;;;18.10;99.90;;;;;;5225888;28;20222;-51
2022/05/12 05:35:58;;;;;;;4.07;1.90;;;17.80;99.90;;;;;;5225671;28;20237;-51
2022/05/12 05:38:28;;;;;;;3.30;1.47;;;19.10;99.90;;;;;;5221277;28;20538;-51
2022/05/12 05:40:59;;;;;;;3.10;1.70;;;20.90;91.80;;;;;;5226398;28;20180;-50
2022/05/12 05:43:29;;;;;;;6.07;1.87;;;21.60;79.80;;;;;;5228851;28;20585;-51
2022/05/12 05:46:00;;;;;;;2.10;1.60;;;22.40;71.70;;;;;;5226244;28;20253;-49
2022/05/12 05:48:31;;;;;;;4.67;1.70;;;23.30;63.80;;;;;;5230858;28;20183;-51
2022/05/12 05:53:51;;;;;;;2.80;1.63;;;23.70;54.80;;;;;;5224302;28;20551;-51
2022/05/12 05:56:21;;;;;;;2.47;1.53;;;22.50;55.50;;;;;;5239506;28;20454;-52
2022/05/12 05:58:52;;;;;;;5.03;2.10;;;21.80;56.80;;;;;;5214526;28;20197;-52
2022/05/12 06:01:22;;;;;;;6.90;2.13;;;22.40;57.50;;;;;;5227899;28;20175;-51
2022/05/12 06:03:53;;;;;;;6.00;1.47;;;23.30;54.20;;;;;;5214876;28;20915;-51
2022/05/12 06:06:24;;;;;;;1.43;1.33;;;24.40;52.30;;;;;;5217413;28;20226;-50
2022/05/12 06:08:54;;;;;;;3.70;1.50;;;24.80;49.20;;;;;;5214031;28;20186;-50
2022/05/12 06:11:26;;;;;;;1.37;1.30;;;25.40;49.70;;;;;;5223398;28;20445;-51
2022/05/12 06:13:57;;;;;;;2.73;1.27;;;25.40;46.00;;;;;;5222410;28;20272;-52
2022/05/12 06:16:28;;;;;;;2.53;1.23;;;25.70;46.70;;;;;;5227486;28;20449;-52
2022/05/12 06:18:58;;;;;;;3.77;1.60;;;26.10;43.90;;;;;;5225692;28;20183;-52
2022/05/12 06:21:29;;;;;;;1.20;1.20;;;25.40;44.30;;;;;;5221931;28;20217;-52
2022/05/12 06:23:59;;;;;;;1.90;1.47;;;23.00;47.90;;;;;;5219825;28;20191;-54
2022/05/12 06:26:30;;;;;;;1.07;0.97;;;21.20;51.80;;;;;;5238518;28;20302;-48
2022/05/12 06:29:00;;;;;;;2.30;1.30;;;19.80;54.90;;;;;;5225492;28;20652;-50
2022/05/12 06:31:32;;;;;;;2.93;1.80;;;18.80;58.80;;;;;;5223490;28;20210;-50
2022/05/12 06:34:03;;;;;;;1.93;1.20;;;18.50;59.80;;;;;;5222576;28;20218;-49
2022/05/12 06:36:33;;;;;;;1.17;0.87;;;18.10;62.10;;;;;;5227710;28;20504;-50
2022/05/12 06:39:04;;;;;;;1.33;0.73;;;17.60;65.00;;;;;;5222790;28;20186;-51
2022/05/12 06:41:35;;;;;;;7.20;1.20;;;17.50;68.30;;;;;;5223339;28;20178;-50
2022/05/12 06:44:06;;;;;;;4.37;1.20;;;18.40;67.40;;;;;;5223285;28;20266;-50
2022/05/12 06:46:38;;;;;;;1.00;1.00;;;19.80;62.50;;;;;;5222925;28;20206;-50
2022/05/12 06:49:09;;;;;;;2.37;1.53;;;21.80;56.40;;;;;;5226067;28;20182;-50
2022/05/12 06:51:39;;;;;;;5.30;1.70;;;23.00;51.40;;;;;;5228888;28;20441;-52
2022/05/12 06:54:10;;;;;;;3.40;1.67;;;22.60;51.30;;;;;;5225220;28;20539;-52
2022/05/12 06:56:41;;;;;;;2.53;1.30;;;21.90;52.10;;;;;;5210364;28;20203;-50
2022/05/12 06:59:11;;;;;;;1.10;1.10;;;22.50;51.10;;;;;;5225178;28;20189;-49
2022/05/12 07:01:42;;;;;;;5.90;1.30;;;23.50;48.90;;;;;;5229214;28;20186;-51
2022/05/12 07:04:12;;;;;;;2.80;1.30;;;23.10;48.50;;;;;;5228564;28;20195;-51
2022/05/12 07:06:43;;;;;;;3.20;0.80;;;23.10;48.30;;;;;;5225949;28;20532;-52
2022/05/12 07:09:14;;;;;;;1.30;1.13;;;22.40;48.40;;;;;;5222721;28;20248;-51
2022/05/12 07:11:45;;;;;;;5.83;1.17;;;21.20;50.90;;;;;;5220135;28;20179;-51
2022/05/12 07:14:17;;;;;;;1.33;0.80;;;20.40;52.90;;;;;;5221228;28;20233;-50
2022/05/12 07:16:48;;;;;;;4.57;0.90;;;19.90;55.00;;;;;;5224494;28;20459;-51
2022/05/12 07:19:19;;;;;;;7.20;1.33;;;20.50;53.90;;;;;;5224292;28;20785;-51
2022/05/12 07:27:28;;;;;;;1.43;0.93;;;21.30;52.80;;;;;;5222246;28;20444;-51
2022/05/12 07:29:58;;;;;;;1.43;0.70;;;22.00;51.00;;;;;;5222249;28;20429;-50
2022/05/12 07:32:29;;;;;;;7.40;1.17;;;22.20;50.00;;;;;;5224301;28;20670;-50
2022/05/12 07:34:59;;;;;;;0.77;0.70;;;22.10;50.20;;;;;;5219956;28;20199;-50
2022/05/12 07:37:30;;;;;;;5.87;1.07;;;21.60;50.10;;;;;;5238681;28;20640;-51
2022/05/12 07:40:01;;;;;;;1.37;0.90;;;20.70;50.50;;;;;;5225396;28;20217;-51
2022/05/12 07:42:31;;;;;;;1.07;0.87;;;19.30;53.30;;;;;;5224251;28;20554;-51
2022/05/12 07:45:02;;;;;;;2.40;0.67;;;18.40;56.00;;;;;;5221590;28;20200;-54
2022/05/12 07:47:32;;;;;;;1.70;1.00;;;17.80;57.20;;;;;;5223508;28;20183;-52
2022/05/12 07:50:03;;;;;;;10.47;1.30;;;17.50;58.30;;;;;;5214295;28;20205;-51
2022/05/12 07:52:34;;;;;;;1.10;1.00;;;18.00;57.30;;;;;;5220200;28;20194;-52
2022/05/12 07:55:04;;;;;;;2.07;1.20;;;18.40;55.90;;;;;;5224671;28;20210;-52
2022/05/12 07:57:35;;;;;;;1.30;0.90;;;18.90;55.40;;;;;;5221361;28;20183;-54
2022/05/12 08:00:07;;;;;;;3.60;0.67;;;19.10;54.10;;;;;;5226803;28;20191;-51
2022/05/12 08:02:38;;;;;;;1.20;1.10;;;19.00;54.10;;;;;;5221991;28;20179;-50
2022/05/12 08:05:09;;;;;;;2.00;0.70;;;19.20;53.80;;;;;;5222401;28;20461;-52
2022/05/12 08:07:40;;;;;;;2.00;0.67;;;19.10;52.40;;;;;;5222166;28;20712;-50
2022/05/12 08:10:12;;;;;;;0.87;0.60;;;18.40;53.60;;;;;;5223156;28;20446;-51
2022/05/12 08:12:46;;;;;;;1.20;1.10;;;17.80;56.00;;;;;;5224317;28;20630;-52
2022/05/12 08:15:18;;;;;;;1.00;1.00;;;17.70;57.80;;;;;;5226067;28;20972;-50
2022/05/12 08:17:52;;;;;;;1.27;0.70;;;17.50;59.30;;;;;;5221052;28;20437;-50
2022/05/12 08:20:23;;;;;;;4.60;1.20;;;17.10;60.90;;;;;;5225756;28;20456;-51
2022/05/12 08:22:54;;;;;;;2.20;0.60;;;17.00;64.30;;;;;;5227102;28;20464;-51
2022/05/12 08:25:24;;;;;;;3.23;1.23;;;17.00;65.60;;;;;;5224159;28;20509;-50
2022/05/12 08:27:55;;;;;;;2.33;1.13;;;17.20;66.60;;;;;;5224391;28;20183;-52
2022/05/12 08:30:26;;;;;;;0.90;0.90;;;19.70;59.20;;;;;;5224437;28;20643;-50
2022/05/12 08:32:57;;;;;;;0.93;0.93;;;20.80;52.80;;;;;;5223486;28;20506;-51
2022/05/12 08:35:28;;;;;;;2.77;1.10;;;19.50;54.30;;;;;;5214722;28;20214;-52
2022/05/12 08:37:58;;;;;;;2.90;0.87;;;18.50;56.10;;;;;;5224191;28;20498;-50
2022/05/12 08:40:57;;;;;;;1.60;0.67;;;19.00;55.90;;;;;;5203561;28;20182;-51
2022/05/12 08:43:49;;;;;;;1.70;1.57;;;20.70;52.20;;;;;;5222701;28;20201;-50
2022/05/12 08:46:45;;;;;;;0.70;0.70;;;20.80;50.10;;;;;;5222869;28;20452;-50
2022/05/12 08:49:32;;;;;;;2.40;0.70;;;21.30;49.70;;;;;;5218595;28;20975;-50
2022/05/12 08:52:23;;;;;;;2.30;1.10;;;22.10;48.30;;;;;;5226152;28;20510;-51
2022/05/12 08:55:01;;;;;;;1.63;0.60;;;21.50;47.40;;;;;;5225269;28;20518;-51
2022/05/12 08:57:42;;;;;;;0.83;0.83;;;20.70;48.40;;;;;;5221963;28;20433;-51
2022/05/12 09:00:16;;;;;;;3.33;0.90;;;20.10;50.80;;;;;;5219464;28;20453;-50
2022/05/12 09:03:19;;;;;;;1.80;0.60;;;19.60;51.30;;;;;;5223116;28;20532;-51
2022/05/12 09:06:06;;;;;;;7.97;0.90;;;19.20;50.90;;;;;;5241343;28;20541;-49
2022/05/12 09:08:53;;;;;;;0.83;0.70;;;19.00;52.40;;;;;;5223838;28;20536;-51
2022/05/12 09:11:49;;;;;;;1.43;0.97;;;18.70;51.50;;;;;;5217552;28;20437;-50
2022/05/12 09:14:59;;;;;;;6.63;1.20;;;18.50;52.30;;;;;;5222353;28;20530;-51
2022/05/12 09:17:43;;;;;;;2.83;0.90;;;18.50;52.20;;;;;;5122675;28;20436;-51
2022/05/12 09:20:15;;;;;;;1.47;0.90;;;18.80;52.60;;;;;;5221608;28;20437;-50
2022/05/12 09:22:46;;;;;;;1.33;1.10;;;18.70;52.40;;;;;;5216363;28;20485;-52
2022/05/12 09:25:39;;;;;;;6.73;1.50;;;18.70;52.40;;;;;;5237301;22;20497;-58
2022/05/12 09:28:24;;;;;;;5.70;1.10;;;18.70;51.60;;;;;;5176623;28;20192;-52
2022/05/12 09:31:01;;;;;;;2.43;1.20;;;18.60;51.10;;;;;;5177604;28;20548;-52
2022/05/12 09:33:36;;;;;;;5.40;1.27;;;18.50;51.40;;;;;;5170072;28;20885;-53
2022/05/12 09:36:26;;;;;;;1.80;1.23;;;18.30;52.70;;;;;;5178669;28;20813;-53
2022/05/12 09:38:58;;;;;;;1.43;0.97;;;17.90;54.20;;;;;;5177654;28;20506;-52
2022/05/12 09:41:42;;;;;;;3.13;1.00;;;17.60;54.50;;;;;;5176917;28;20447;-53
2022/05/12 09:44:23;;;;;;;2.93;1.57;;;17.70;54.50;;;;;;5179652;28;20916;-52
2022/05/12 09:47:09;;;;;;;5.73;2.50;;;17.90;53.80;;;;;;5191689;28;20451;-52
2022/05/12 09:49:46;;;;;;;9.90;1.50;;;17.90;53.30;;;;;;5175776;28;20504;-52
2022/05/12 09:52:28;;;;;;;4.87;3.47;;;17.90;53.70;;;;;;5178332;28;20550;-53
2022/05/12 09:55:19;;;;;;;2.37;1.30;;;17.90;54.10;;;;;;5174015;28;20471;-53
2022/05/12 09:57:56;;;;;;;9.37;2.00;;;18.20;54.10;;;;;;5181927;28;20836;-53
2022/05/12 10:01:03;;;;;;;4.60;2.87;;;18.50;53.70;;;;;;5177030;28;21077;-53
2022/05/12 10:09:28;;;;;;;1.60;1.10;;;18.80;51.50;;;;;;5182080;28;20454;-53
2022/05/12 10:12:15;;;;;;;1.40;1.30;;;18.70;50.30;;;;;;5199469;28;20446;-52
2022/05/12 10:14:57;;;;;;;0.83;0.83;;;18.40;50.40;;;;;;5179060;28;22212;-52
2022/05/12 10:17:34;;;;;;;1.20;1.00;;;18.50;50.20;;;;;;5181214;28;21021;-51
2022/05/12 10:20:09;;;;;;;7.97;2.07;;;18.60;49.30;;;;;;5180431;28;20525;-52
2022/05/12 10:23:02;;;;;;;7.60;5.93;;;18.50;48.90;;;;;;5184888;28;20850;-52
2022/05/12 10:26:20;;;;;;;11.43;6.13;;;18.30;48.60;;;;;;5176875;28;20466;-52
2022/05/12 10:28:55;;;;;;;3.70;2.30;;;18.40;47.50;;;;;;5168764;28;20435;-54
2022/05/12 10:31:51;;;;;;;2.67;1.30;;;18.40;48.00;;;;;;5174347;28;20939;-50
2022/05/12 10:34:48;;;;;;;0.97;0.90;;;18.40;47.80;;;;;;5179165;28;20463;-51
2022/05/12 10:37:48;;;;;;;2.17;1.17;;;18.70;47.90;;;;;;5179649;28;20577;-52
2022/05/12 10:40:37;;;;;;;6.03;3.60;;;18.80;47.30;;;;;;5181227;28;20863;-54
2022/05/12 10:43:46;;;;;;;6.77;3.80;;;18.80;47.90;;;;;;5188812;28;20442;-53
2022/05/12 10:46:31;;;;;;;2.30;2.10;;;18.40;47.20;;;;;;5194513;28;20454;-54
2022/05/12 10:49:26;;;;;;;1.57;1.30;;;18.20;47.60;;;;;;5178325;28;20450;-53
2022/05/12 10:52:27;;;;;;;5.53;1.30;;;18.20;48.60;;;;;;5175122;28;20439;-53
2022/05/12 10:55:18;;;;;;;1.63;0.77;;;18.20;48.40;;;;;;5173328;28;20525;-53
2022/05/12 10:58:04;;;;;;;8.23;1.13;;;18.20;47.70;;;;;;5175021;28;20895;-54
2022/05/12 11:00:59;;;;;;;1.80;1.10;;;18.20;48.30;;;;;;5180004;28;20431;-54
2022/05/12 11:03:39;;;;;;;7.70;5.90;;;18.30;48.80;;;;;;5177358;28;20452;-53
2022/05/12 11:06:15;;;;;;;15.37;5.70;;;18.30;49.00;;;;;;5194000;28;20478;-52
2022/05/12 11:08:48;;;;;;;5.80;4.17;;;18.50;49.10;;;;;;5178459;28;20434;-52
2022/05/12 11:11:24;;;;;;;6.30;3.40;;;18.80;48.50;;;;;;5180848;28;20997;-54
2022/05/12 11:14:03;;;;;;;1.40;1.30;;;19.10;48.30;;;;;;5183152;28;20520;-52
2022/05/12 11:16:50;;;;;;;1.37;1.10;;;19.30;48.00;;;;;;5180760;28;20516;-53
2022/05/12 11:19:25;;;;;;;1.87;1.70;;;19.30;46.60;;;;;;5177616;28;20488;-52
2022/05/12 11:22:14;;;;;;;1.63;1.53;;;19.40;47.10;;;;;;5180077;28;20434;-52
2022/05/12 11:25:00;;;;;;;5.70;2.93;;;19.50;46.80;;;;;;5177285;28;20443;-55
2022/05/12 11:29:41;;;;;;;2.10;1.90;;;19.60;46.00;;;;;;5182904;28;20562;-54
2022/05/12 11:30:56;;;;;;;2.00;1.87;;;19.90;46.80;;;;;;5180670;28;20469;-52
2022/05/12 11:33:33;;;;;;;1.60;1.50;;;20.00;45.20;;;;;;5180962;28;20493;-53
2022/05/12 11:36:07;;;;;;;1.70;1.60;;;20.10;45.70;;;;;;5173562;28;21025;-54
2022/05/12 11:38:38;;;;;;;2.43;1.03;;;20.50;45.30;;;;;;5174499;28;20455;-52
2022/05/12 11:41:37;;;;;;;0.97;0.97;;;20.40;45.70;;;;;;5194617;28;20452;-54
2022/05/12 11:44:26;;;;;;;1.27;1.10;;;20.20;45.60;;;;;;5175533;28;20197;-54
2022/05/12 11:47:19;;;;;;;2.20;1.00;;;20.00;45.00;;;;;;5175125;28;20462;-53
2022/05/12 11:50:05;;;;;;;1.80;1.20;;;19.50;43.80;;;;;;5175655;28;20988;-53
2022/05/12 11:53:01;;;;;;;0.90;0.90;;;19.00;44.90;;;;;;5178355;28;20505;-53
2022/05/12 11:55:35;;;;;;;11.93;7.10;;;18.80;45.00;;;;;;5181522;28;20953;-52
2022/05/12 11:58:13;;;;;;;1.23;1.23;;;19.10;45.00;;;;;;5176267;28;20445;-54
2022/05/12 12:00:49;;;;;;;8.60;4.10;;;19.50;45.00;;;;;;5181545;28;20463;-53
2022/05/12 12:03:20;;;;;;;20.43;11.93;;;19.50;45.00;;;;;;5175983;28;20843;-53
2022/05/12 12:05:50;;;;;;;3.07;2.87;;;19.30;44.80;;;;;;5178573;28;20463;-52
2022/05/12 12:08:30;;;;;;;7.10;3.90;;;19.10;45.50;;;;;;5180610;28;20279;-53
2022/05/12 12:11:13;;;;;;;5.27;3.80;;;19.30;46.00;;;;;;5172619;28;20196;-53
2022/05/12 12:13:49;;;;;;;9.60;8.00;;;19.60;44.90;;;;;;5178835;28;20493;-52
2022/05/12 12:16:22;;;;;;;5.50;2.23;;;19.60;44.50;;;;;;5168294;28;20443;-53
2022/05/12 12:18:57;;;;;;;2.73;2.50;;;19.40;44.80;;;;;;5178532;28;20795;-54
2022/05/12 12:21:36;;;;;;;1.20;1.10;;;19.30;44.60;;;;;;5167784;28;20431;-53
2022/05/12 12:24:19;;;;;;;1.73;1.10;;;19.20;45.20;;;;;;5190232;28;20450;-54
2022/05/12 12:26:56;;;;;;;1.30;1.20;;;19.10;45.70;;;;;;5169797;28;20463;-52
2022/05/12 12:29:45;;;;;;;3.10;1.27;;;19.30;46.70;;;;;;5172448;28;20442;-52
2022/05/12 12:32:27;;;;;;;2.30;1.10;;;19.50;45.90;;;;;;5171548;28;20484;-53
2022/05/12 12:35:26;;;;;;;1.33;1.23;;;19.40;45.40;;;;;;5175040;28;20463;-53
2022/05/12 12:37:57;;;;;;;12.13;5.70;;;19.70;45.80;;;;;;5171431;28;21050;-52
2022/05/12 12:40:30;;;;;;;10.87;6.90;;;19.90;45.20;;;;;;5172616;28;20522;-54
2022/05/12 12:43:30;;;;;;;3.93;3.13;;;20.00;45.20;;;;;;5168694;28;20184;-51
2022/05/12 12:46:21;;;;;;;4.57;2.00;;;20.00;45.00;;;;;;5174493;28;20474;-53
2022/05/12 12:49:08;;;;;;;3.87;1.90;;;20.00;44.90;;;;;;5175538;28;20436;-54
2022/05/12 12:51:40;;;;;;;2.57;1.23;;;19.70;45.50;;;;;;5174656;28;20427;-53
2022/05/12 12:57:22;;;;;;;1.50;1.20;;;19.60;46.20;;;;;;5171612;28;20498;-53
2022/05/12 12:59:56;;;;;;;3.10;1.10;;;20.10;46.50;;;;;;5175653;28;20823;-53
2022/05/12 13:02:40;;;;;;;2.67;1.27;;;20.20;45.20;;;;;;5183174;28;20544;-53
2022/05/12 13:05:18;;;;;;;1.07;1.07;;;20.20;45.00;;;;;;5175034;28;20434;-54
2022/05/12 13:07:56;;;;;;;6.83;1.50;;;20.20;44.10;;;;;;5175154;28;20461;-53
2022/05/12 13:10:29;;;;;;;3.10;2.77;;;20.30;44.00;;;;;;5179002;28;20435;-52
2022/05/12 13:13:02;;;;;;;1.30;1.10;;;20.60;44.10;;;;;;5173823;28;20583;-53
2022/05/12 13:15:39;;;;;;;0.80;0.80;;;20.80;44.00;;;;;;5174557;28;20455;-56
2022/05/12 13:18:22;;;;;;;1.97;1.27;;;20.50;43.00;;;;;;5173450;28;20431;-52
2022/05/12 13:20:54;;;;;;;1.30;1.30;;;20.50;43.30;;;;;;5177099;28;20523;-53
2022/05/12 13:23:28;;;;;;;2.10;0.87;;;20.70;42.90;;;;;;5178436;28;20446;-52
2022/05/12 13:26:04;;;;;;;1.17;0.77;;;20.80;42.30;;;;;;5190366;28;20466;-53
2022/05/12 13:28:37;;;;;;;5.10;1.30;;;20.70;42.60;;;;;;5180172;28;20447;-54
2022/05/12 13:31:16;;;;;;;1.83;1.73;;;20.40;42.90;;;;;;5181611;28;20439;-52
2022/05/12 13:34:22;;;;;;;7.00;3.70;;;20.30;43.30;;;;;;5181842;28;20501;-53
2022/05/12 13:36:58;;;;;;;1.13;1.10;;;20.20;43.00;;;;;;5187366;28;20490;-54
2022/05/12 13:39:50;;;;;;;1.13;1.10;;;20.10;42.60;;;;;;5192250;28;20443;-51
2022/05/12 13:42:41;;;;;;;2.73;1.30;;;20.30;43.10;;;;;;5184190;28;20947;-54
2022/05/12 13:45:27;;;;;;;0.87;0.77;;;20.20;42.40;;;;;;5172817;28;20435;-52
2022/05/12 13:47:59;;;;;;;4.23;0.90;;;20.10;43.40;;;;;;5181210;28;20783;-53
2022/05/12 13:50:44;;;;;;;1.33;1.00;;;19.80;42.40;;;;;;5184528;28;20434;-53